Time;durP1;ratioP1;P1;durP2;ratioP2;P2;SDS_P1;SDS_P2;PMS_P1;PMS_P2;Temp;Humidity;BMP_temperature;BMP_pressure;BME280_temperature;BME280_humidity;BME280_pressure;Samples;Min_cycle;Max_cycle;Signal;HPM_P1;HPM_P2
2023/07/07 00:01:32;;;;;;;4.82;2.92;;;;;;;14.07;100.00;96155.22;5018768;28;24439;-73
2023/07/07 00:03:59;;;;;;;5.50;3.17;;;;;;;14.04;100.00;96150.22;5028984;28;24474;-72
2023/07/07 00:06:26;;;;;;;3.28;2.38;;;;;;;13.91;100.00;96149.44;5023908;28;25012;-73
2023/07/07 00:08:52;;;;;;;6.90;2.85;;;;;;;13.84;100.00;96143.81;5029737;28;25088;-73
2023/07/07 00:11:19;;;;;;;3.77;2.40;;;;;;;13.83;100.00;96144.75;5029059;28;24467;-73
2023/07/07 00:13:45;;;;;;;4.97;2.83;;;;;;;13.79;100.00;96144.13;5030522;28;24485;-73
2023/07/07 00:16:13;;;;;;;6.90;2.72;;;;;;;13.62;100.00;96144.47;5022084;28;24446;-73
2023/07/07 00:18:40;;;;;;;3.47;2.70;;;;;;;13.55;100.00;96145.81;5021410;28;24467;-72
2023/07/07 00:21:07;;;;;;;3.00;2.70;;;;;;;13.55;100.00;96146.66;5021068;28;25142;-72
2023/07/07 00:23:37;;;;;;;4.03;2.70;;;;;;;13.64;100.00;96144.34;5020224;28;24539;-72
2023/07/07 00:26:07;;;;;;;5.00;2.78;;;;;;;13.71;100.00;96142.97;5026325;28;24446;-72
2023/07/07 00:28:34;;;;;;;4.60;2.87;;;;;;;13.55;100.00;96141.44;5022872;28;25180;-73
2023/07/07 00:31:01;;;;;;;9.57;3.28;;;;;;;13.46;100.00;96138.63;5028507;28;24431;-73
2023/07/07 00:33:29;;;;;;;4.22;3.30;;;;;;;13.44;100.00;96137.91;5026979;28;24448;-73
2023/07/07 00:35:56;;;;;;;3.10;2.80;;;;;;;13.42;100.00;96147.56;5025067;28;24440;-73
2023/07/07 00:38:22;;;;;;;6.82;3.50;;;;;;;13.34;100.00;96136.88;5025860;28;24448;-72
2023/07/07 00:40:52;;;;;;;5.35;3.08;;;;;;;13.36;100.00;96137.59;5023063;28;24859;-73
2023/07/07 00:43:20;;;;;;;5.10;3.40;;;;;;;13.36;100.00;96140.22;5024480;28;24478;-73
2023/07/07 00:45:46;;;;;;;3.35;2.67;;;;;;;13.31;100.00;96136.16;5025974;28;24449;-72
2023/07/07 00:48:15;;;;;;;3.97;2.85;;;;;;;13.27;100.00;96136.44;5029833;28;24786;-72
2023/07/07 00:50:47;;;;;;;4.38;3.22;;;;;;;13.33;100.00;96133.44;5026699;28;24498;-73
2023/07/07 00:53:14;;;;;;;4.88;2.85;;;;;;;13.43;100.00;96139.69;5020852;28;24439;-73
2023/07/07 00:55:43;;;;;;;3.80;2.70;;;;;;;13.40;100.00;96147.69;5014438;28;24440;-73
2023/07/07 00:58:13;;;;;;;6.60;3.00;;;;;;;13.30;100.00;96138.84;5029031;28;24487;-73
2023/07/07 01:00:45;;;;;;;4.68;2.88;;;;;;;13.34;100.00;96142.91;5024137;28;24535;-73
2023/07/07 01:03:19;;;;;;;3.70;2.92;;;;;;;13.25;100.00;96146.97;5021882;28;24479;-73
2023/07/07 01:05:49;;;;;;;3.58;2.78;;;;;;;13.22;100.00;96143.69;5027119;28;24490;-73
2023/07/07 01:08:17;;;;;;;3.97;2.70;;;;;;;13.24;100.00;96145.31;5027217;28;24443;-72
2023/07/07 01:10:43;;;;;;;4.30;3.13;;;;;;;13.19;100.00;96147.34;5023702;28;25126;-72
2023/07/07 01:13:10;;;;;;;4.45;2.80;;;;;;;13.17;100.00;96146.63;5021077;28;24814;-73
2023/07/07 01:15:44;;;;;;;5.15;2.83;;;;;;;13.07;100.00;96150.75;5022940;28;24439;-73
2023/07/07 01:18:20;;;;;;;4.43;2.67;;;;;;;12.86;100.00;96154.78;5030611;28;24443;-73
2023/07/07 01:21:01;;;;;;;4.95;3.03;;;;;;;12.87;100.00;96154.69;5023504;28;24436;-72
2023/07/07 01:23:59;;;;;;;4.78;3.03;;;;;;;12.95;100.00;96154.19;5018934;28;24472;-73
2023/07/07 01:26:46;;;;;;;3.85;2.90;;;;;;;13.04;100.00;96154.38;5022816;28;24470;-73
2023/07/07 01:29:27;;;;;;;3.72;2.83;;;;;;;12.89;100.00;96145.00;5024330;28;24984;-73
2023/07/07 01:31:58;;;;;;;4.97;2.67;;;;;;;12.82;100.00;96146.34;5028824;28;25012;-73
2023/07/07 01:34:25;;;;;;;3.40;2.85;;;;;;;12.66;100.00;96153.50;5029258;28;24435;-72
2023/07/07 01:36:52;;;;;;;4.75;3.00;;;;;;;12.62;100.00;96147.66;5029790;28;24432;-73
2023/07/07 01:39:18;;;;;;;4.68;3.17;;;;;;;12.42;100.00;96141.16;5026326;28;24802;-73
2023/07/07 01:41:51;;;;;;;3.75;2.83;;;;;;;12.32;100.00;96140.91;5022276;28;24443;-73
2023/07/07 01:44:24;;;;;;;8.13;3.20;;;;;;;12.41;100.00;96149.03;5025931;28;24865;-73
2023/07/07 01:46:57;;;;;;;4.00;3.10;;;;;;;12.46;100.00;96146.97;5026864;28;24435;-71
2023/07/07 01:49:31;;;;;;;5.97;2.92;;;;;;;12.48;100.00;96143.34;5019770;28;24436;-71
2023/07/07 01:52:06;;;;;;;4.70;3.17;;;;;;;12.55;100.00;96148.97;5026247;28;24439;-71
2023/07/07 01:54:37;;;;;;;5.20;3.03;;;;;;;12.60;100.00;96142.53;5027239;28;24442;-71
2023/07/07 01:57:05;;;;;;;5.80;3.38;;;;;;;12.76;100.00;96141.56;5023056;28;24503;-71
2023/07/07 01:59:32;;;;;;;4.43;2.78;;;;;;;12.76;100.00;96129.41;5019008;28;24431;-71
2023/07/07 02:02:01;;;;;;;4.15;3.10;;;;;;;12.74;100.00;96141.66;5022137;28;24440;-72
2023/07/07 02:04:27;;;;;;;3.53;3.13;;;;;;;12.69;100.00;96142.91;5024748;28;24467;-71
2023/07/07 02:06:54;;;;;;;3.42;2.72;;;;;;;12.76;100.00;96147.59;5028945;28;24440;-71
2023/07/07 02:09:21;;;;;;;7.00;3.53;;;;;;;12.73;100.00;96145.19;5016875;28;24866;-71
2023/07/07 02:11:47;;;;;;;7.93;3.20;;;;;;;12.78;100.00;96131.88;5025853;28;24435;-71
2023/07/07 02:14:14;;;;;;;7.53;3.05;;;;;;;12.74;100.00;96143.41;5022180;28;24440;-71
2023/07/07 02:16:40;;;;;;;4.10;3.10;;;;;;;12.68;100.00;96147.28;5024157;28;24794;-71
2023/07/07 02:19:08;;;;;;;4.68;3.20;;;;;;;12.64;100.00;96140.56;5023550;28;24443;-71
2023/07/07 02:21:34;;;;;;;5.38;2.95;;;;;;;12.65;100.00;96141.44;5025986;28;24444;-71
2023/07/07 02:24:01;;;;;;;4.57;2.83;;;;;;;12.64;100.00;96145.78;5025445;28;24460;-72
2023/07/07 02:26:28;;;;;;;3.72;2.95;;;;;;;12.60;100.00;96144.31;5023919;28;24468;-71
2023/07/07 02:28:55;;;;;;;4.30;3.08;;;;;;;12.63;100.00;96144.13;5024042;28;24531;-71
2023/07/07 02:31:24;;;;;;;3.95;2.75;;;;;;;12.69;100.00;96135.94;5023735;28;25095;-71
2023/07/07 02:33:50;;;;;;;4.57;3.03;;;;;;;12.78;100.00;96144.88;5024556;28;24440;-71
2023/07/07 02:36:18;;;;;;;4.15;2.80;;;;;;;12.76;100.00;96142.41;5024029;28;24486;-71
2023/07/07 02:38:45;;;;;;;3.83;2.63;;;;;;;12.70;100.00;96140.19;5027180;28;24522;-71
2023/07/07 02:41:11;;;;;;;3.63;2.85;;;;;;;12.66;100.00;96140.50;5021139;28;25126;-71
2023/07/07 02:43:38;;;;;;;6.47;3.17;;;;;;;12.72;100.00;96146.13;5023566;28;24439;-71
2023/07/07 02:46:05;;;;;;;3.65;2.83;;;;;;;12.68;100.00;96151.59;5025698;28;24455;-71
2023/07/07 02:48:31;;;;;;;4.38;3.00;;;;;;;12.69;100.00;96153.28;5021047;28;24447;-71
2023/07/07 02:51:00;;;;;;;4.00;2.92;;;;;;;12.61;100.00;96153.78;5025103;28;24439;-71
2023/07/07 02:53:30;;;;;;;3.97;2.80;;;;;;;12.48;100.00;96140.75;5025030;28;24463;-71
2023/07/07 02:55:57;;;;;;;4.68;3.00;;;;;;;12.41;100.00;96144.66;5024368;28;24435;-71
2023/07/07 02:58:24;;;;;;;3.53;2.63;;;;;;;12.35;100.00;96142.47;5016282;28;24428;-71
2023/07/07 03:00:51;;;;;;;5.65;2.88;;;;;;;12.39;100.00;96154.34;5026531;28;24440;-71
2023/07/07 03:03:18;;;;;;;4.60;2.72;;;;;;;12.19;100.00;96155.59;5026210;28;24837;-71
2023/07/07 03:05:45;;;;;;;4.05;2.90;;;;;;;12.07;100.00;96151.16;5022492;28;25039;-71
2023/07/07 03:08:12;;;;;;;3.42;2.90;;;;;;;12.07;100.00;96146.81;5025895;28;25011;-71
2023/07/07 03:10:41;;;;;;;4.70;2.70;;;;;;;12.04;100.00;96143.56;5020855;28;24496;-71
2023/07/07 03:13:08;;;;;;;5.47;2.55;;;;;;;11.91;100.00;96148.69;5028591;28;24436;-71
2023/07/07 03:15:38;;;;;;;3.58;2.88;;;;;;;11.78;100.00;96156.38;5022229;28;24977;-71
2023/07/07 03:18:05;;;;;;;3.30;2.77;;;;;;;11.74;100.00;96148.88;5025440;28;24969;-71
2023/07/07 03:20:32;;;;;;;6.13;2.72;;;;;;;11.60;100.00;96150.53;5020925;28;24440;-71
2023/07/07 03:22:59;;;;;;;7.40;3.20;;;;;;;11.66;100.00;96146.75;5027132;28;24440;-71
2023/07/07 03:25:26;;;;;;;6.30;3.47;;;;;;;11.73;100.00;96152.41;5019928;28;24484;-71
2023/07/07 03:27:53;;;;;;;6.72;3.47;;;;;;;11.63;100.00;96149.53;5026133;28;24862;-71
2023/07/07 03:30:20;;;;;;;5.63;3.03;;;;;;;11.56;100.00;96145.63;5022445;28;24487;-71
2023/07/07 03:32:46;;;;;;;5.88;3.30;;;;;;;11.53;100.00;96156.19;5023569;28;24477;-71
2023/07/07 03:35:13;;;;;;;5.10;3.20;;;;;;;11.48;100.00;96153.03;5020390;28;24439;-71
2023/07/07 03:37:40;;;;;;;7.65;3.22;;;;;;;11.47;100.00;96161.75;5023017;28;24455;-71
2023/07/07 03:40:09;;;;;;;4.88;3.30;;;;;;;11.55;100.00;96155.19;5021367;28;24978;-71
2023/07/07 03:42:36;;;;;;;5.10;3.05;;;;;;;11.53;100.00;96161.38;5026239;28;24841;-71
2023/07/07 03:45:04;;;;;;;4.03;3.10;;;;;;;11.57;100.00;96168.06;5018330;28;24468;-71
2023/07/07 03:47:31;;;;;;;4.78;3.13;;;;;;;11.65;100.00;96163.25;5023600;28;24439;-71
2023/07/07 03:49:57;;;;;;;5.20;3.05;;;;;;;11.57;100.00;96168.91;5025594;28;24435;-71
2023/07/07 03:52:23;;;;;;;5.35;3.28;;;;;;;11.49;100.00;96165.06;5015768;28;24466;-71
2023/07/07 03:54:50;;;;;;;8.80;4.05;;;;;;;11.51;100.00;96171.84;5027627;28;24502;-71
2023/07/07 03:57:16;;;;;;;8.27;4.50;;;;;;;11.40;100.00;96171.66;5015566;28;25028;-71
2023/07/07 03:59:43;;;;;;;8.05;4.35;;;;;;;11.29;100.00;96172.28;5021918;28;24490;-71
2023/07/07 04:02:10;;;;;;;7.07;4.30;;;;;;;11.25;100.00;96168.22;5024840;28;24489;-71
2023/07/07 04:04:37;;;;;;;7.97;4.20;;;;;;;11.35;100.00;96169.34;5025185;28;24459;-71
2023/07/07 04:07:04;;;;;;;5.93;3.50;;;;;;;11.47;100.00;96174.72;5024310;28;24439;-71
2023/07/07 04:09:30;;;;;;;6.00;3.70;;;;;;;11.49;100.00;96170.25;5027175;28;24439;-71
2023/07/07 04:11:56;;;;;;;4.78;3.30;;;;;;;11.54;100.00;96176.03;5023419;28;24450;-71
2023/07/07 04:14:27;;;;;;;4.55;3.53;;;;;;;11.44;100.00;96177.50;5030655;28;24459;-71
2023/07/07 04:16:53;;;;;;;4.20;3.25;;;;;;;11.42;100.00;96179.34;5028639;28;24528;-71
2023/07/07 04:19:21;;;;;;;4.80;3.10;;;;;;;11.53;100.00;96171.75;5030063;28;24435;-71
2023/07/07 04:21:48;;;;;;;7.70;3.80;;;;;;;11.55;100.00;96170.75;5028765;28;24522;-71
2023/07/07 04:24:14;;;;;;;4.22;3.30;;;;;;;11.66;100.00;96171.84;5024327;28;24482;-71
2023/07/07 04:26:41;;;;;;;4.47;3.30;;;;;;;11.77;100.00;96172.03;5030990;28;24456;-71
2023/07/07 04:29:07;;;;;;;4.53;3.50;;;;;;;11.91;100.00;96166.03;5024188;28;24534;-71
2023/07/07 04:31:33;;;;;;;5.50;3.20;;;;;;;12.07;100.00;96162.38;5025027;28;24521;-71
2023/07/07 04:34:00;;;;;;;6.07;3.63;;;;;;;12.20;100.00;96172.84;5028203;28;24440;-71
2023/07/07 04:36:28;;;;;;;10.68;3.55;;;;;;;12.29;100.00;96169.66;5027922;28;24439;-71
2023/07/07 04:38:54;;;;;;;6.03;3.67;;;;;;;12.42;100.00;96177.53;5027165;28;24482;-71
2023/07/07 04:41:22;;;;;;;3.95;3.20;;;;;;;12.43;100.00;96175.75;5029596;28;24444;-71
2023/07/07 04:43:51;;;;;;;5.77;3.63;;;;;;;12.49;100.00;96183.97;5023894;28;24482;-71
2023/07/07 04:46:21;;;;;;;5.40;3.20;;;;;;;12.57;100.00;96179.13;5021768;28;24475;-71
2023/07/07 04:48:48;;;;;;;4.68;3.38;;;;;;;12.73;100.00;96176.38;5031083;28;24439;-71
2023/07/07 04:51:14;;;;;;;4.40;3.33;;;;;;;12.91;100.00;96186.53;5025826;28;24870;-71
2023/07/07 04:53:42;;;;;;;5.22;3.42;;;;;;;13.06;100.00;96188.13;5030300;28;24518;-71
2023/07/07 04:56:10;;;;;;;6.45;3.97;;;;;;;13.17;100.00;96183.03;5022808;28;24447;-71
2023/07/07 04:58:38;;;;;;;5.07;3.30;;;;;;;13.41;100.00;96182.34;5027526;28;25070;-71
2023/07/07 05:01:06;;;;;;;3.47;3.08;;;;;;;13.53;100.00;96191.91;5025963;28;24459;-71
2023/07/07 05:03:33;;;;;;;7.57;3.60;;;;;;;13.28;100.00;96183.19;5028224;28;24475;-71
2023/07/07 05:05:59;;;;;;;5.63;3.50;;;;;;;13.42;100.00;96184.00;5025911;28;24458;-71
2023/07/07 05:08:25;;;;;;;4.72;3.30;;;;;;;13.55;100.00;96182.25;5028812;28;24435;-71
2023/07/07 05:10:53;;;;;;;4.95;3.42;;;;;;;13.58;100.00;96195.06;5025673;28;24837;-70
2023/07/07 05:13:20;;;;;;;7.40;3.78;;;;;;;13.66;100.00;96200.56;5018493;28;24440;-71
2023/07/07 05:15:46;;;;;;;6.75;2.97;;;;;;;13.89;100.00;96187.75;5019302;28;24482;-71
2023/07/07 05:18:12;;;;;;;6.85;3.55;;;;;;;13.98;100.00;96185.34;5023517;28;24440;-71
2023/07/07 05:20:39;;;;;;;6.10;3.60;;;;;;;14.07;100.00;96188.25;5022663;28;24845;-71
2023/07/07 05:23:05;;;;;;;5.03;3.20;;;;;;;13.97;100.00;96188.03;5027136;28;24440;-71
2023/07/07 05:25:32;;;;;;;5.18;3.45;;;;;;;14.08;100.00;96188.13;5021940;28;24455;-71
2023/07/07 05:27:59;;;;;;;7.82;3.42;;;;;;;14.28;100.00;96192.78;5025573;28;24514;-71
2023/07/07 05:30:26;;;;;;;5.55;3.20;;;;;;;14.40;100.00;96191.06;5021024;28;24458;-71
2023/07/07 05:32:52;;;;;;;6.10;3.40;;;;;;;14.50;100.00;96189.50;5027425;28;25053;-71
2023/07/07 05:35:19;;;;;;;4.80;3.25;;;;;;;14.67;100.00;96197.88;5026310;28;24431;-73
2023/07/07 05:37:45;;;;;;;5.57;3.15;;;;;;;14.80;100.00;96190.84;5024077;28;24447;-71
2023/07/07 05:40:12;;;;;;;6.28;3.22;;;;;;;14.93;100.00;96186.38;5025608;28;24856;-72
2023/07/07 05:42:38;;;;;;;4.22;3.30;;;;;;;15.09;100.00;96193.91;5029010;28;24428;-71
2023/07/07 05:45:08;;;;;;;8.68;3.58;;;;;;;15.21;100.00;96184.34;5026161;28;24487;-71
2023/07/07 05:47:34;;;;;;;5.60;3.30;;;;;;;15.28;98.61;96188.16;5027268;28;24452;-73
2023/07/07 05:50:03;;;;;;;4.13;3.25;;;;;;;15.45;97.76;96194.69;5026131;28;24782;-72
2023/07/07 05:52:29;;;;;;;5.53;3.60;;;;;;;15.58;97.36;96198.06;5022312;28;24431;-71
2023/07/07 05:54:56;;;;;;;5.25;3.20;;;;;;;15.59;92.50;96193.66;5021791;28;24837;-71
2023/07/07 05:57:23;;;;;;;8.80;3.65;;;;;;;15.46;93.60;96194.59;5017336;28;24441;-73
2023/07/07 05:59:49;;;;;;;6.05;3.47;;;;;;;15.29;95.27;96209.84;5019547;28;24432;-72
2023/07/07 06:02:17;;;;;;;4.83;3.43;;;;;;;15.38;94.75;96207.38;5022898;28;24435;-71
2023/07/07 06:04:43;;;;;;;6.70;3.33;;;;;;;15.36;96.28;96208.47;5016383;28;25009;-72
2023/07/07 06:07:09;;;;;;;5.63;3.00;;;;;;;15.40;96.10;96199.44;5019689;28;24463;-72
2023/07/07 06:09:36;;;;;;;4.00;3.33;;;;;;;15.46;95.35;96202.44;5027753;28;24443;-73
2023/07/07 06:12:03;;;;;;;5.28;3.10;;;;;;;15.68;95.37;96204.28;5019241;28;24444;-73
2023/07/07 06:14:29;;;;;;;6.82;3.60;;;;;;;15.97;95.87;96204.63;5028714;28;24440;-72
2023/07/07 06:16:56;;;;;;;5.40;3.27;;;;;;;16.28;93.05;96211.84;5029034;28;24522;-72
2023/07/07 06:19:24;;;;;;;4.90;3.45;;;;;;;16.50;90.05;96204.00;5019988;28;25018;-72
2023/07/07 06:21:50;;;;;;;5.72;3.50;;;;;;;16.53;86.88;96201.13;5021023;28;24506;-71
2023/07/07 06:24:17;;;;;;;5.30;3.30;;;;;;;16.65;88.49;96210.63;5025293;28;25072;-72
2023/07/07 06:26:43;;;;;;;7.07;3.67;;;;;;;16.86;89.89;96204.63;5024652;28;24856;-72
2023/07/07 06:29:09;;;;;;;5.78;3.40;;;;;;;17.20;88.26;96217.59;5025642;28;24435;-72
2023/07/07 06:31:36;;;;;;;4.20;3.38;;;;;;;17.56;86.09;96216.34;5021027;28;24439;-72
2023/07/07 06:34:02;;;;;;;5.80;3.35;;;;;;;17.79;80.15;96217.88;5019318;28;24448;-72
2023/07/07 06:36:30;;;;;;;8.38;3.55;;;;;;;17.98;79.54;96204.03;5019674;28;24838;-71
2023/07/07 06:38:57;;;;;;;6.93;3.22;;;;;;;17.96;77.87;96215.63;5023345;28;24853;-72
2023/07/07 06:41:25;;;;;;;13.93;3.65;;;;;;;17.91;76.29;96226.50;5028184;28;24432;-72
2023/07/07 06:43:53;;;;;;;8.88;3.20;;;;;;;18.20;76.48;96224.00;5027465;28;24440;-71
2023/07/07 06:46:25;;;;;;;4.90;3.30;;;;;;;18.53;76.07;96229.91;5018593;28;24550;-71
2023/07/07 06:48:51;;;;;;;6.80;2.92;;;;;;;18.94;74.65;96228.91;5023977;28;24474;-72
2023/07/07 06:51:18;;;;;;;9.55;3.80;;;;;;;18.98;69.97;96226.84;5027953;28;24993;-72
2023/07/07 06:53:46;;;;;;;7.93;3.50;;;;;;;18.83;71.31;96229.84;5026870;28;25010;-71
2023/07/07 06:56:12;;;;;;;10.10;3.80;;;;;;;18.85;69.56;96232.34;5025057;28;24485;-72
2023/07/07 06:58:39;;;;;;;8.63;3.58;;;;;;;19.06;72.32;96237.50;5018948;28;24444;-73
2023/07/07 07:01:05;;;;;;;7.20;3.25;;;;;;;19.29;70.30;96238.06;5027328;28;24518;-72
2023/07/07 07:03:32;;;;;;;5.53;3.10;;;;;;;19.57;69.74;96226.69;5017052;28;24447;-74
2023/07/07 07:05:58;;;;;;;11.47;3.67;;;;;;;19.91;66.61;96234.13;5028091;28;24452;-73
2023/07/07 07:08:25;;;;;;;8.55;3.55;;;;;;;19.96;62.69;96233.69;5023248;28;24440;-72
2023/07/07 07:10:53;;;;;;;8.25;3.63;;;;;;;19.99;61.30;96234.25;5022150;28;24706;-71
2023/07/07 07:13:19;;;;;;;6.68;3.53;;;;;;;20.02;60.21;96233.09;5019866;28;24435;-72
2023/07/07 07:15:46;;;;;;;7.17;3.37;;;;;;;20.01;60.39;96234.09;5024174;28;24912;-71
2023/07/07 07:18:13;;;;;;;6.47;3.38;;;;;;;20.08;61.38;96239.59;5024955;28;24440;-72
2023/07/07 07:20:40;;;;;;;7.80;3.43;;;;;;;20.39;62.61;96230.47;5021442;28;24439;-71
2023/07/07 07:23:06;;;;;;;5.85;3.47;;;;;;;20.76;61.80;96233.09;5026844;28;25116;-70
2023/07/07 07:25:33;;;;;;;5.60;3.53;;;;;;;20.98;60.27;96234.44;5027345;28;24439;-70
2023/07/07 07:28:00;;;;;;;6.37;3.33;;;;;;;20.76;60.16;96230.47;5019934;28;24463;-73
2023/07/07 07:30:27;;;;;;;9.85;3.60;;;;;;;20.78;60.30;96223.25;5021696;28;24442;-74
2023/07/07 07:32:53;;;;;;;9.57;4.00;;;;;;;20.85;60.33;96222.66;5021703;28;25080;-74
2023/07/07 07:35:20;;;;;;;5.47;3.30;;;;;;;21.22;59.45;96225.16;5016342;28;24455;-74
2023/07/07 07:37:46;;;;;;;7.20;4.10;;;;;;;21.39;57.75;96229.59;5027498;28;24497;-73
2023/07/07 07:40:13;;;;;;;6.30;3.80;;;;;;;21.97;56.44;96222.94;5025400;28;24482;-74
2023/07/07 07:42:40;;;;;;;6.75;3.45;;;;;;;22.17;53.21;96216.50;5018184;28;24433;-71
2023/07/07 07:45:15;;;;;;;5.45;3.60;;;;;;;22.10;52.97;96227.78;5026013;28;24503;-72
2023/07/07 07:47:41;;;;;;;9.27;3.88;;;;;;;22.19;53.65;96224.25;5022225;28;24456;-72
2023/07/07 07:50:08;;;;;;;6.93;4.10;;;;;;;22.21;53.53;96215.19;5027681;28;24843;-72
2023/07/07 07:52:35;;;;;;;16.17;4.60;;;;;;;22.57;52.83;96219.47;5019061;28;24459;-73
2023/07/07 07:55:01;;;;;;;7.88;4.20;;;;;;;22.71;50.35;96226.78;5024736;28;24467;-71
2023/07/07 07:57:27;;;;;;;6.75;3.85;;;;;;;22.99;50.89;96226.53;5024261;28;24443;-71
2023/07/07 07:59:54;;;;;;;8.82;4.53;;;;;;;22.98;50.46;96227.53;5028361;28;24497;-72
2023/07/07 08:02:22;;;;;;;5.95;4.10;;;;;;;23.40;51.12;96230.06;5031343;28;24438;-73
2023/07/07 08:04:48;;;;;;;7.00;4.03;;;;;;;23.74;50.05;96226.47;5024402;28;24466;-73
2023/07/07 08:07:15;;;;;;;4.18;3.78;;;;;;;23.90;47.20;96224.59;5028354;28;25015;-73
2023/07/07 08:09:41;;;;;;;5.13;3.88;;;;;;;23.98;47.16;96220.28;5033361;28;24447;-71
2023/07/07 08:12:11;;;;;;;6.82;4.00;;;;;;;23.89;46.93;96225.59;5025570;28;24443;-72
2023/07/07 08:14:38;;;;;;;6.20;3.92;;;;;;;24.01;46.39;96225.25;5024483;28;24444;-72
2023/07/07 08:17:08;;;;;;;9.57;4.38;;;;;;;23.89;47.53;96228.25;5026381;28;24432;-71
2023/07/07 08:19:38;;;;;;;7.25;4.47;;;;;;;23.98;46.78;96218.47;5027647;28;24444;-71
2023/07/07 08:22:06;;;;;;;6.00;4.00;;;;;;;24.04;47.58;96223.09;5028345;28;24969;-71
2023/07/07 08:24:37;;;;;;;7.80;4.32;;;;;;;24.34;46.52;96220.69;5026253;28;24838;-73
2023/07/07 08:27:04;;;;;;;5.32;4.05;;;;;;;24.41;46.95;96216.41;5024552;28;24472;-71
2023/07/07 08:29:30;;;;;;;7.82;4.40;;;;;;;24.38;45.01;96214.88;5024180;28;24447;-71
2023/07/07 08:31:57;;;;;;;6.30;3.95;;;;;;;24.38;44.75;96217.53;5023822;28;24443;-73
2023/07/07 08:34:23;;;;;;;7.57;4.43;;;;;;;24.29;46.28;96217.75;5025810;28;24451;-71
2023/07/07 08:36:54;;;;;;;7.63;4.88;;;;;;;24.56;42.30;96208.56;5027232;28;24575;-72
2023/07/07 08:39:22;;;;;;;8.85;4.70;;;;;;;25.17;43.27;96216.69;5029055;28;24478;-73
2023/07/07 08:41:51;;;;;;;6.00;4.60;;;;;;;25.76;44.69;96211.56;5028914;28;24476;-74
2023/07/07 08:44:20;;;;;;;8.68;5.10;;;;;;;26.35;46.74;96210.84;5021518;28;24765;-74
2023/07/07 08:47:07;;;;;;;10.93;5.00;;;;;;;26.52;43.96;96217.63;5024398;28;24463;-74
2023/07/07 08:49:42;;;;;;;9.13;5.10;;;;;;;26.82;38.93;96220.25;5023854;28;24562;-74
2023/07/07 08:52:23;;;;;;;10.03;5.57;;;;;;;26.71;37.57;96222.38;5018931;28;24456;-73
2023/07/07 08:54:54;;;;;;;9.18;5.07;;;;;;;26.77;39.75;96224.28;5024759;28;24447;-74
2023/07/07 08:57:27;;;;;;;6.10;4.70;;;;;;;26.89;41.19;96218.50;5018959;28;25019;-73
2023/07/07 09:00:03;;;;;;;6.95;5.00;;;;;;;26.86;36.54;96218.88;5029277;28;24531;-74
2023/07/07 09:02:50;;;;;;;7.20;5.20;;;;;;;26.88;35.83;96220.31;5023032;28;25008;-74
2023/07/07 09:05:32;;;;;;;5.53;4.97;;;;;;;27.09;35.65;96224.03;5018565;28;24450;-74
2023/07/07 09:08:11;;;;;;;10.40;5.50;;;;;;;27.11;36.66;96214.03;5026941;28;24458;-73
2023/07/07 09:10:41;;;;;;;9.27;6.00;;;;;;;27.28;34.27;96210.13;5020165;28;24440;-73
2023/07/07 09:13:20;;;;;;;8.80;5.73;;;;;;;27.36;37.76;96207.34;5029638;28;24443;-74
2023/07/07 09:15:59;;;;;;;5.78;5.18;;;;;;;27.43;37.50;96207.41;5019949;28;24498;-75
2023/07/07 09:18:30;;;;;;;8.02;5.40;;;;;;;27.67;34.98;96211.50;5027242;28;24443;-72
2023/07/07 09:21:03;;;;;;;7.32;5.50;;;;;;;27.59;36.36;96208.97;5023135;28;24467;-72
2023/07/07 09:23:34;;;;;;;7.47;5.43;;;;;;;27.19;36.90;96209.44;5029103;28;24444;-72
2023/07/07 09:26:05;;;;;;;7.13;5.40;;;;;;;27.14;34.72;96209.16;5023510;28;24505;-72
2023/07/07 09:28:40;;;;;;;7.90;5.93;;;;;;;27.50;33.75;96205.63;5017026;28;24451;-72
2023/07/07 09:31:17;;;;;;;10.52;6.80;;;;;;;27.47;32.40;96206.00;5019725;28;24444;-74
2023/07/07 09:33:43;;;;;;;7.65;5.70;;;;;;;27.38;33.24;96207.16;5028792;28;25151;-74
2023/07/07 09:36:16;;;;;;;9.65;6.00;;;;;;;27.56;35.32;96204.88;5027825;28;24443;-73
2023/07/07 09:38:55;;;;;;;7.75;5.97;;;;;;;27.49;32.91;96206.66;5029572;28;24447;-74
2023/07/07 09:41:30;;;;;;;8.40;5.67;;;;;;;27.48;32.38;96205.84;5022820;28;24444;-72
2023/07/07 09:44:20;;;;;;;8.10;6.00;;;;;;;27.75;32.83;96200.75;5026465;28;24447;-73
2023/07/07 09:46:51;;;;;;;11.32;6.38;;;;;;;28.00;32.94;96195.81;5018901;28;24946;-73
2023/07/07 09:49:26;;;;;;;8.07;6.20;;;;;;;28.36;33.50;96195.59;5026911;28;24841;-72
2023/07/07 09:51:59;;;;;;;7.53;5.72;;;;;;;28.32;34.37;96189.03;5026113;28;24527;-73
2023/07/07 09:54:28;;;;;;;7.10;5.80;;;;;;;28.14;34.88;96192.19;5021917;28;25066;-73
2023/07/07 09:56:59;;;;;;;9.40;5.95;;;;;;;28.35;36.52;96193.16;5029598;28;24435;-73
2023/07/07 09:59:31;;;;;;;8.10;6.13;;;;;;;28.53;33.01;96190.00;5026316;28;24440;-73
2023/07/07 10:01:58;;;;;;;9.50;6.00;;;;;;;28.48;34.20;96193.25;5025463;28;24428;-72
2023/07/07 10:04:28;;;;;;;9.07;6.00;;;;;;;28.61;36.86;96190.63;5019913;28;24950;-73
2023/07/07 10:06:59;;;;;;;9.85;6.20;;;;;;;28.70;33.63;96186.78;5021317;28;24510;-74
2023/07/07 10:09:28;;;;;;;9.07;6.13;;;;;;;28.78;32.06;96192.97;5020220;28;24435;-74
2023/07/07 10:11:56;;;;;;;10.38;5.75;;;;;;;28.64;31.95;96182.25;5021865;28;25000;-73
2023/07/07 10:14:25;;;;;;;6.28;5.63;;;;;;;28.76;32.55;96187.00;5026011;28;24436;-74
2023/07/07 10:16:59;;;;;;;10.13;5.57;;;;;;;28.84;33.75;96184.97;5028703;28;24439;-74
2023/07/07 10:19:25;;;;;;;11.80;6.35;;;;;;;29.03;31.11;96185.25;5021829;28;24431;-73
2023/07/07 10:21:53;;;;;;;9.35;6.72;;;;;;;29.03;30.33;96190.59;5027104;28;24436;-74
2023/07/07 10:24:20;;;;;;;11.35;6.97;;;;;;;29.12;33.22;96184.88;5021255;28;24533;-73
2023/07/07 10:26:48;;;;;;;12.18;7.57;;;;;;;29.01;31.17;96196.13;5026416;28;24456;-72
2023/07/07 10:29:18;;;;;;;8.70;6.90;;;;;;;28.78;31.93;96188.44;5016055;28;24436;-72
2023/07/07 10:31:47;;;;;;;11.27;6.70;;;;;;;28.93;32.10;96185.63;5020743;28;24435;-72
2023/07/07 10:34:25;;;;;;;8.40;6.50;;;;;;;28.88;29.72;96186.22;5018426;28;24892;-72
2023/07/07 10:36:54;;;;;;;9.13;6.63;;;;;;;28.89;29.85;96189.72;5023050;28;24436;-72
2023/07/07 10:39:23;;;;;;;8.50;7.00;;;;;;;28.70;28.74;96192.13;5027965;28;24458;-72
2023/07/07 10:41:51;;;;;;;9.85;7.65;;;;;;;28.25;29.25;96185.50;5023743;28;24507;-72
2023/07/07 10:44:17;;;;;;;9.65;7.30;;;;;;;28.77;29.65;96188.63;5024299;28;24471;-72
2023/07/07 10:46:43;;;;;;;10.30;7.95;;;;;;;28.60;28.15;96185.50;5018259;28;24810;-72
2023/07/07 10:49:15;;;;;;;12.30;6.97;;;;;;;29.05;28.09;96184.03;5025206;28;25001;-72
2023/07/07 10:51:53;;;;;;;10.10;7.22;;;;;;;29.08;28.89;96182.81;5019135;28;24486;-71
2023/07/07 10:54:30;;;;;;;10.35;8.27;;;;;;;29.38;27.14;96185.94;5026024;28;24814;-70
2023/07/07 10:57:13;;;;;;;11.93;7.57;;;;;;;28.98;26.44;96185.88;5018615;28;24437;-71
2023/07/07 11:00:08;;;;;;;9.45;8.35;;;;;;;28.79;25.50;96183.94;5018592;28;24444;-72
2023/07/07 11:02:53;;;;;;;14.98;9.32;;;;;;;28.70;25.15;96186.78;5009357;28;24495;-71
2023/07/07 11:05:39;;;;;;;14.85;9.77;;;;;;;29.00;23.69;96191.84;5023167;28;24459;-71
2023/07/07 11:08:21;;;;;;;12.73;9.20;;;;;;;29.32;24.07;96192.91;5015892;28;24800;-72
2023/07/07 11:11:07;;;;;;;14.13;9.07;;;;;;;29.34;24.16;96193.53;5017667;28;24498;-72
2023/07/07 11:13:49;;;;;;;13.33;9.10;;;;;;;28.74;24.65;96181.88;5025215;28;24451;-73
2023/07/07 11:16:23;;;;;;;12.52;9.15;;;;;;;28.03;24.41;96182.09;5021040;28;24444;-71
2023/07/07 11:19:05;;;;;;;11.95;8.70;;;;;;;28.09;28.34;96183.97;5025990;28;24440;-72
2023/07/07 11:21:42;;;;;;;11.32;8.43;;;;;;;28.86;26.80;96179.44;5025361;28;24769;-72
2023/07/07 11:24:14;;;;;;;9.35;8.38;;;;;;;29.05;27.00;96181.38;5025969;28;24456;-72
2023/07/07 11:26:53;;;;;;;8.73;7.75;;;;;;;28.87;25.75;96183.75;5027837;28;24432;-73
2023/07/07 11:29:29;;;;;;;12.68;7.90;;;;;;;29.24;25.97;96181.63;5017617;28;24498;-71
2023/07/07 11:32:10;;;;;;;13.45;8.23;;;;;;;29.26;26.12;96171.53;5031689;28;24450;-72
2023/07/07 11:34:51;;;;;;;12.10;7.97;;;;;;;29.45;25.48;96170.75;5022007;28;24554;-72
2023/07/07 11:37:28;;;;;;;13.77;7.60;;;;;;;29.47;25.63;96168.69;5028001;28;24447;-72
2023/07/07 11:40:08;;;;;;;10.07;7.07;;;;;;;29.35;26.03;96168.50;5030809;28;24455;-72